sensor_id;sensor_type;location;lat;lon;timestamp;P1;durP1;ratioP1;P2;durP2;ratioP2
62332;SDS011;48624;49.812;8.562;2024-03-02T00:00:15;8.40;;;6.53;;
62332;SDS011;48624;49.812;8.562;2024-03-02T00:02:44;11.57;;;6.63;;
62332;SDS011;48624;49.812;8.562;2024-03-02T00:05:14;14.93;;;6.75;;
62332;SDS011;48624;49.812;8.562;2024-03-02T00:07:41;10.75;;;7.32;;
62332;SDS011;48624;49.812;8.562;2024-03-02T00:10:08;9.93;;;6.88;;
62332;SDS011;48624;49.812;8.562;2024-03-02T00:12:38;11.30;;;7.85;;
62332;SDS011;48624;49.812;8.562;2024-03-02T00:15:05;15.15;;;8.77;;
62332;SDS011;48624;49.812;8.562;2024-03-02T00:17:44;13.23;;;7.85;;
62332;SDS011;48624;49.812;8.562;2024-03-02T00:20:10;17.13;;;9.63;;
62332;SDS011;48624;49.812;8.562;2024-03-02T00:22:41;15.20;;;8.93;;
62332;SDS011;48624;49.812;8.562;2024-03-02T00:25:07;12.07;;;8.35;;
62332;SDS011;48624;49.812;8.562;2024-03-02T00:27:33;9.82;;;6.63;;
62332;SDS011;48624;49.812;8.562;2024-03-02T00:30:00;11.35;;;7.35;;
62332;SDS011;48624;49.812;8.562;2024-03-02T00:32:26;12.77;;;7.15;;
62332;SDS011;48624;49.812;8.562;2024-03-02T00:34:53;7.90;;;6.28;;
62332;SDS011;48624;49.812;8.562;2024-03-02T00:37:18;8.70;;;6.68;;
62332;SDS011;48624;49.812;8.562;2024-03-02T00:39:43;10.23;;;6.63;;
62332;SDS011;48624;49.812;8.562;2024-03-02T00:42:14;10.98;;;7.03;;
62332;SDS011;48624;49.812;8.562;2024-03-02T00:44:39;9.27;;;6.35;;
62332;SDS011;48624;49.812;8.562;2024-03-02T00:47:05;16.88;;;8.50;;
62332;SDS011;48624;49.812;8.562;2024-03-02T00:49:30;11.63;;;7.43;;
62332;SDS011;48624;49.812;8.562;2024-03-02T00:51:55;13.35;;;8.02;;
62332;SDS011;48624;49.812;8.562;2024-03-02T00:54:22;15.88;;;8.73;;
62332;SDS011;48624;49.812;8.562;2024-03-02T00:56:49;15.63;;;9.15;;
62332;SDS011;48624;49.812;8.562;2024-03-02T00:59:15;14.88;;;8.75;;
62332;SDS011;48624;49.812;8.562;2024-03-02T01:01:40;19.75;;;10.45;;
62332;SDS011;48624;49.812;8.562;2024-03-02T01:04:05;13.73;;;9.23;;
62332;SDS011;48624;49.812;8.562;2024-03-02T01:06:30;10.50;;;7.35;;
62332;SDS011;48624;49.812;8.562;2024-03-02T01:08:56;9.70;;;6.80;;
62332;SDS011;48624;49.812;8.562;2024-03-02T01:11:21;10.27;;;6.25;;
62332;SDS011;48624;49.812;8.562;2024-03-02T01:13:49;10.88;;;6.60;;
62332;SDS011;48624;49.812;8.562;2024-03-02T01:16:15;13.52;;;8.50;;
62332;SDS011;48624;49.812;8.562;2024-03-02T01:18:41;11.43;;;6.78;;
62332;SDS011;48624;49.812;8.562;2024-03-02T01:21:07;11.50;;;7.35;;
62332;SDS011;48624;49.812;8.562;2024-03-02T01:23:32;13.13;;;7.90;;
62332;SDS011;48624;49.812;8.562;2024-03-02T01:25:58;12.70;;;7.55;;
62332;SDS011;48624;49.812;8.562;2024-03-02T01:28:23;11.27;;;7.07;;
62332;SDS011;48624;49.812;8.562;2024-03-02T01:30:48;11.68;;;7.63;;
62332;SDS011;48624;49.812;8.562;2024-03-02T01:33:14;12.43;;;7.47;;
62332;SDS011;48624;49.812;8.562;2024-03-02T01:35:40;11.25;;;7.50;;
62332;SDS011;48624;49.812;8.562;2024-03-02T01:38:05;21.27;;;9.18;;
62332;SDS011;48624;49.812;8.562;2024-03-02T01:40:34;16.88;;;8.88;;
62332;SDS011;48624;49.812;8.562;2024-03-02T01:42:59;15.38;;;8.88;;
62332;SDS011;48624;49.812;8.562;2024-03-02T01:45:25;12.30;;;7.40;;
62332;SDS011;48624;49.812;8.562;2024-03-02T01:47:50;12.50;;;7.05;;
62332;SDS011;48624;49.812;8.562;2024-03-02T01:50:16;12.50;;;8.50;;
62332;SDS011;48624;49.812;8.562;2024-03-02T01:52:51;12.18;;;7.60;;
62332;SDS011;48624;49.812;8.562;2024-03-02T01:55:16;11.35;;;7.75;;
62332;SDS011;48624;49.812;8.562;2024-03-02T01:57:41;11.80;;;8.17;;
62332;SDS011;48624;49.812;8.562;2024-03-02T02:00:08;13.93;;;9.17;;
62332;SDS011;48624;49.812;8.562;2024-03-02T02:02:34;14.13;;;9.53;;
62332;SDS011;48624;49.812;8.562;2024-03-02T02:05:00;14.43;;;8.83;;
62332;SDS011;48624;49.812;8.562;2024-03-02T02:07:25;13.40;;;9.33;;
62332;SDS011;48624;49.812;8.562;2024-03-02T02:09:50;16.07;;;10.40;;
62332;SDS011;48624;49.812;8.562;2024-03-02T02:12:16;16.10;;;10.30;;
62332;SDS011;48624;49.812;8.562;2024-03-02T02:14:46;19.07;;;10.43;;
62332;SDS011;48624;49.812;8.562;2024-03-02T02:17:13;17.87;;;10.37;;
62332;SDS011;48624;49.812;8.562;2024-03-02T02:19:40;17.97;;;11.07;;
62332;SDS011;48624;49.812;8.562;2024-03-02T02:22:05;16.08;;;10.30;;
62332;SDS011;48624;49.812;8.562;2024-03-02T02:24:31;16.08;;;9.90;;
62332;SDS011;48624;49.812;8.562;2024-03-02T02:26:56;18.50;;;10.52;;
62332;SDS011;48624;49.812;8.562;2024-03-02T02:29:21;20.77;;;12.50;;
62332;SDS011;48624;49.812;8.562;2024-03-02T02:31:47;20.73;;;13.13;;
62332;SDS011;48624;49.812;8.562;2024-03-02T02:34:13;22.47;;;12.23;;
62332;SDS011;48624;49.812;8.562;2024-03-02T02:36:39;19.63;;;11.43;;
62332;SDS011;48624;49.812;8.562;2024-03-02T02:39:05;18.40;;;10.93;;
62332;SDS011;48624;49.812;8.562;2024-03-02T02:41:34;16.97;;;10.57;;
62332;SDS011;48624;49.812;8.562;2024-03-02T02:43:59;17.03;;;9.17;;
62332;SDS011;48624;49.812;8.562;2024-03-02T02:46:24;13.40;;;8.50;;
62332;SDS011;48624;49.812;8.562;2024-03-02T02:48:49;14.13;;;8.30;;
62332;SDS011;48624;49.812;8.562;2024-03-02T02:51:16;12.50;;;7.90;;
62332;SDS011;48624;49.812;8.562;2024-03-02T02:53:41;11.03;;;8.03;;
62332;SDS011;48624;49.812;8.562;2024-03-02T02:56:07;13.00;;;9.00;;
62332;SDS011;48624;49.812;8.562;2024-03-02T02:58:32;14.98;;;8.02;;
62332;SDS011;48624;49.812;8.562;2024-03-02T03:00:57;13.33;;;9.37;;
62332;SDS011;48624;49.812;8.562;2024-03-02T03:03:23;13.35;;;9.00;;
62332;SDS011;48624;49.812;8.562;2024-03-02T03:05:48;18.43;;;10.70;;
62332;SDS011;48624;49.812;8.562;2024-03-02T03:08:13;12.48;;;8.77;;
62332;SDS011;48624;49.812;8.562;2024-03-02T03:10:40;16.97;;;9.40;;
62332;SDS011;48624;49.812;8.562;2024-03-02T03:13:06;16.13;;;9.30;;
62332;SDS011;48624;49.812;8.562;2024-03-02T03:15:33;21.43;;;10.27;;
62332;SDS011;48624;49.812;8.562;2024-03-02T03:17:59;17.20;;;10.17;;
62332;SDS011;48624;49.812;8.562;2024-03-02T03:20:24;17.53;;;9.80;;
62332;SDS011;48624;49.812;8.562;2024-03-02T03:22:50;12.50;;;8.40;;
62332;SDS011;48624;49.812;8.562;2024-03-02T03:25:15;15.20;;;8.67;;
62332;SDS011;48624;49.812;8.562;2024-03-02T03:27:40;17.83;;;10.17;;
62332;SDS011;48624;49.812;8.562;2024-03-02T03:30:06;18.67;;;10.80;;
62332;SDS011;48624;49.812;8.562;2024-03-02T03:32:32;18.83;;;10.30;;
62332;SDS011;48624;49.812;8.562;2024-03-02T03:34:57;13.60;;;8.87;;
62332;SDS011;48624;49.812;8.562;2024-03-02T03:37:22;18.70;;;10.23;;
62332;SDS011;48624;49.812;8.562;2024-03-02T03:39:49;15.70;;;9.90;;
62332;SDS011;48624;49.812;8.562;2024-03-02T03:42:14;22.77;;;11.30;;
62332;SDS011;48624;49.812;8.562;2024-03-02T03:44:39;31.50;;;13.93;;
62332;SDS011;48624;49.812;8.562;2024-03-02T03:47:06;25.53;;;12.77;;
62332;SDS011;48624;49.812;8.562;2024-03-02T03:49:31;23.30;;;12.00;;
62332;SDS011;48624;49.812;8.562;2024-03-02T03:51:57;29.13;;;13.40;;
62332;SDS011;48624;49.812;8.562;2024-03-02T03:54:22;24.90;;;13.20;;
62332;SDS011;48624;49.812;8.562;2024-03-02T03:56:47;23.27;;;13.63;;
62332;SDS011;48624;49.812;8.562;2024-03-02T03:59:13;19.03;;;11.93;;
62332;SDS011;48624;49.812;8.562;2024-03-02T04:01:38;19.63;;;11.07;;
62332;SDS011;48624;49.812;8.562;2024-03-02T04:04:03;17.80;;;10.93;;
62332;SDS011;48624;49.812;8.562;2024-03-02T04:06:28;17.30;;;10.30;;
62332;SDS011;48624;49.812;8.562;2024-03-02T04:08:54;14.70;;;10.03;;
62332;SDS011;48624;49.812;8.562;2024-03-02T04:11:19;16.63;;;10.47;;
62332;SDS011;48624;49.812;8.562;2024-03-02T04:13:45;18.03;;;10.30;;
62332;SDS011;48624;49.812;8.562;2024-03-02T04:16:10;20.93;;;11.53;;
62332;SDS011;48624;49.812;8.562;2024-03-02T04:18:35;23.07;;;13.07;;
62332;SDS011;48624;49.812;8.562;2024-03-02T04:21:00;30.80;;;13.73;;
62332;SDS011;48624;49.812;8.562;2024-03-02T04:23:26;24.47;;;13.13;;
62332;SDS011;48624;49.812;8.562;2024-03-02T04:25:51;29.00;;;13.07;;
62332;SDS011;48624;49.812;8.562;2024-03-02T04:28:17;26.93;;;13.50;;
62332;SDS011;48624;49.812;8.562;2024-03-02T04:30:42;24.60;;;13.70;;
62332;SDS011;48624;49.812;8.562;2024-03-02T04:33:07;27.30;;;12.57;;
62332;SDS011;48624;49.812;8.562;2024-03-02T04:35:35;28.67;;;14.37;;
62332;SDS011;48624;49.812;8.562;2024-03-02T04:38:03;22.57;;;13.63;;
62332;SDS011;48624;49.812;8.562;2024-03-02T04:40:28;22.43;;;13.60;;
62332;SDS011;48624;49.812;8.562;2024-03-02T04:42:53;16.40;;;11.77;;
62332;SDS011;48624;49.812;8.562;2024-03-02T04:45:19;23.40;;;12.40;;
62332;SDS011;48624;49.812;8.562;2024-03-02T04:47:44;21.60;;;12.37;;
62332;SDS011;48624;49.812;8.562;2024-03-02T04:50:09;24.13;;;12.77;;
62332;SDS011;48624;49.812;8.562;2024-03-02T04:52:35;25.53;;;13.80;;
62332;SDS011;48624;49.812;8.562;2024-03-02T04:55:00;27.73;;;16.10;;
62332;SDS011;48624;49.812;8.562;2024-03-02T04:57:42;30.43;;;16.50;;
62332;SDS011;48624;49.812;8.562;2024-03-02T05:00:11;31.60;;;15.70;;
62332;SDS011;48624;49.812;8.562;2024-03-02T05:02:37;27.40;;;15.50;;
62332;SDS011;48624;49.812;8.562;2024-03-02T05:05:03;28.57;;;15.43;;
62332;SDS011;48624;49.812;8.562;2024-03-02T05:07:28;32.07;;;15.40;;
62332;SDS011;48624;49.812;8.562;2024-03-02T05:09:54;33.13;;;15.87;;
62332;SDS011;48624;49.812;8.562;2024-03-02T05:12:19;30.77;;;16.63;;
62332;SDS011;48624;49.812;8.562;2024-03-02T05:15:03;31.50;;;16.03;;
62332;SDS011;48624;49.812;8.562;2024-03-02T05:17:29;24.43;;;16.47;;
62332;SDS011;48624;49.812;8.562;2024-03-02T05:19:54;24.37;;;13.50;;
62332;SDS011;48624;49.812;8.562;2024-03-02T05:22:19;27.50;;;13.77;;
62332;SDS011;48624;49.812;8.562;2024-03-02T05:24:44;23.03;;;13.00;;
62332;SDS011;48624;49.812;8.562;2024-03-02T05:27:10;21.47;;;12.83;;
62332;SDS011;48624;49.812;8.562;2024-03-02T05:29:35;26.30;;;14.77;;
62332;SDS011;48624;49.812;8.562;2024-03-02T05:32:00;24.50;;;12.90;;
62332;SDS011;48624;49.812;8.562;2024-03-02T05:34:25;33.40;;;16.87;;
62332;SDS011;48624;49.812;8.562;2024-03-02T05:36:51;33.10;;;18.80;;
62332;SDS011;48624;49.812;8.562;2024-03-02T05:39:16;29.23;;;17.97;;
62332;SDS011;48624;49.812;8.562;2024-03-02T05:41:41;28.63;;;16.27;;
62332;SDS011;48624;49.812;8.562;2024-03-02T05:44:07;29.27;;;17.43;;
62332;SDS011;48624;49.812;8.562;2024-03-02T05:46:32;28.57;;;16.03;;
62332;SDS011;48624;49.812;8.562;2024-03-02T05:48:58;27.07;;;14.87;;
62332;SDS011;48624;49.812;8.562;2024-03-02T05:51:26;23.10;;;14.67;;
62332;SDS011;48624;49.812;8.562;2024-03-02T05:53:52;29.27;;;15.70;;
62332;SDS011;48624;49.812;8.562;2024-03-02T05:56:17;32.63;;;15.80;;
62332;SDS011;48624;49.812;8.562;2024-03-02T05:58:42;27.87;;;17.00;;
62332;SDS011;48624;49.812;8.562;2024-03-02T06:01:18;29.43;;;16.53;;
62332;SDS011;48624;49.812;8.562;2024-03-02T06:03:43;31.87;;;16.97;;
62332;SDS011;48624;49.812;8.562;2024-03-02T06:06:09;30.03;;;16.23;;
62332;SDS011;48624;49.812;8.562;2024-03-02T06:08:35;32.73;;;16.40;;
62332;SDS011;48624;49.812;8.562;2024-03-02T06:11:00;30.10;;;17.77;;
62332;SDS011;48624;49.812;8.562;2024-03-02T06:13:25;30.53;;;18.70;;
62332;SDS011;48624;49.812;8.562;2024-03-02T06:15:51;29.63;;;17.33;;
62332;SDS011;48624;49.812;8.562;2024-03-02T06:18:16;47.03;;;19.67;;
62332;SDS011;48624;49.812;8.562;2024-03-02T06:20:42;37.33;;;18.73;;
62332;SDS011;48624;49.812;8.562;2024-03-02T06:23:07;33.87;;;18.90;;
62332;SDS011;48624;49.812;8.562;2024-03-02T06:25:33;40.13;;;19.75;;
62332;SDS011;48624;49.812;8.562;2024-03-02T06:27:58;30.20;;;17.23;;
62332;SDS011;48624;49.812;8.562;2024-03-02T06:30:24;37.43;;;17.47;;
62332;SDS011;48624;49.812;8.562;2024-03-02T06:32:49;26.70;;;14.00;;
62332;SDS011;48624;49.812;8.562;2024-03-02T06:35:14;24.77;;;14.07;;
62332;SDS011;48624;49.812;8.562;2024-03-02T06:37:40;32.27;;;18.47;;
62332;SDS011;48624;49.812;8.562;2024-03-02T06:40:06;31.93;;;17.50;;
62332;SDS011;48624;49.812;8.562;2024-03-02T06:42:32;34.83;;;19.20;;
62332;SDS011;48624;49.812;8.562;2024-03-02T06:44:58;36.50;;;17.73;;
62332;SDS011;48624;49.812;8.562;2024-03-02T06:47:24;30.53;;;17.70;;
62332;SDS011;48624;49.812;8.562;2024-03-02T06:49:49;31.63;;;18.27;;
62332;SDS011;48624;49.812;8.562;2024-03-02T06:52:17;30.37;;;16.37;;
62332;SDS011;48624;49.812;8.562;2024-03-02T06:54:42;32.27;;;18.67;;
62332;SDS011;48624;49.812;8.562;2024-03-02T06:57:07;34.13;;;17.67;;
62332;SDS011;48624;49.812;8.562;2024-03-02T06:59:33;32.03;;;18.70;;
62332;SDS011;48624;49.812;8.562;2024-03-02T07:01:59;29.53;;;16.30;;
62332;SDS011;48624;49.812;8.562;2024-03-02T07:04:24;36.97;;;17.70;;
62332;SDS011;48624;49.812;8.562;2024-03-02T07:06:49;31.10;;;16.93;;
62332;SDS011;48624;49.812;8.562;2024-03-02T07:09:16;38.77;;;19.87;;
62332;SDS011;48624;49.812;8.562;2024-03-02T07:11:41;35.10;;;19.60;;
62332;SDS011;48624;49.812;8.562;2024-03-02T07:14:06;32.87;;;19.43;;
62332;SDS011;48624;49.812;8.562;2024-03-02T07:16:32;41.10;;;22.10;;
62332;SDS011;48624;49.812;8.562;2024-03-02T07:18:59;43.20;;;22.07;;
62332;SDS011;48624;49.812;8.562;2024-03-02T07:21:26;37.57;;;21.40;;
62332;SDS011;48624;49.812;8.562;2024-03-02T07:23:52;40.60;;;21.97;;
62332;SDS011;48624;49.812;8.562;2024-03-02T07:26:17;37.60;;;20.03;;
62332;SDS011;48624;49.812;8.562;2024-03-02T07:28:43;36.60;;;19.38;;
62332;SDS011;48624;49.812;8.562;2024-03-02T07:31:10;33.97;;;19.60;;
62332;SDS011;48624;49.812;8.562;2024-03-02T07:33:35;32.57;;;18.83;;
62332;SDS011;48624;49.812;8.562;2024-03-02T07:36:00;40.27;;;18.93;;
62332;SDS011;48624;49.812;8.562;2024-03-02T07:38:27;36.83;;;20.03;;
62332;SDS011;48624;49.812;8.562;2024-03-02T07:40:54;33.07;;;19.33;;
62332;SDS011;48624;49.812;8.562;2024-03-02T07:43:20;34.03;;;18.77;;
62332;SDS011;48624;49.812;8.562;2024-03-02T07:45:46;39.63;;;21.43;;
62332;SDS011;48624;49.812;8.562;2024-03-02T07:48:12;38.30;;;22.13;;
62332;SDS011;48624;49.812;8.562;2024-03-02T07:50:37;43.55;;;25.98;;
62332;SDS011;48624;49.812;8.562;2024-03-02T07:53:04;41.63;;;24.47;;
62332;SDS011;48624;49.812;8.562;2024-03-02T07:55:30;47.67;;;25.73;;
62332;SDS011;48624;49.812;8.562;2024-03-02T07:57:56;44.30;;;26.10;;
62332;SDS011;48624;49.812;8.562;2024-03-02T08:00:22;44.20;;;26.75;;
62332;SDS011;48624;49.812;8.562;2024-03-02T08:02:48;37.92;;;24.80;;
62332;SDS011;48624;49.812;8.562;2024-03-02T08:05:15;40.33;;;25.27;;
62332;SDS011;48624;49.812;8.562;2024-03-02T08:07:41;43.17;;;23.27;;
62332;SDS011;48624;49.812;8.562;2024-03-02T08:10:09;39.20;;;23.55;;
62332;SDS011;48624;49.812;8.562;2024-03-02T08:12:34;37.17;;;23.02;;
62332;SDS011;48624;49.812;8.562;2024-03-02T08:14:59;33.47;;;20.63;;
62332;SDS011;48624;49.812;8.562;2024-03-02T08:17:25;31.73;;;19.88;;
62332;SDS011;48624;49.812;8.562;2024-03-02T08:19:50;32.50;;;20.08;;
62332;SDS011;48624;49.812;8.562;2024-03-02T08:22:17;30.35;;;19.95;;
62332;SDS011;48624;49.812;8.562;2024-03-02T08:24:42;33.00;;;22.05;;
62332;SDS011;48624;49.812;8.562;2024-03-02T08:27:07;32.60;;;20.73;;
62332;SDS011;48624;49.812;8.562;2024-03-02T08:29:34;33.42;;;21.20;;
62332;SDS011;48624;49.812;8.562;2024-03-02T08:31:59;30.80;;;18.73;;
62332;SDS011;48624;49.812;8.562;2024-03-02T08:34:25;30.75;;;18.20;;
62332;SDS011;48624;49.812;8.562;2024-03-02T08:36:50;31.60;;;18.90;;
62332;SDS011;48624;49.812;8.562;2024-03-02T08:39:16;31.73;;;19.67;;
62332;SDS011;48624;49.812;8.562;2024-03-02T08:41:42;27.20;;;18.60;;
62332;SDS011;48624;49.812;8.562;2024-03-02T08:44:09;22.90;;;16.58;;
62332;SDS011;48624;49.812;8.562;2024-03-02T08:46:35;23.52;;;16.02;;
62332;SDS011;48624;49.812;8.562;2024-03-02T08:49:01;25.95;;;15.68;;
62332;SDS011;48624;49.812;8.562;2024-03-02T08:51:26;20.75;;;14.23;;
62332;SDS011;48624;49.812;8.562;2024-03-02T08:53:51;20.02;;;13.55;;
62332;SDS011;48624;49.812;8.562;2024-03-02T08:56:17;17.33;;;13.55;;
62332;SDS011;48624;49.812;8.562;2024-03-02T08:58:42;21.02;;;12.88;;
62332;SDS011;48624;49.812;8.562;2024-03-02T09:01:08;17.98;;;12.80;;
62332;SDS011;48624;49.812;8.562;2024-03-02T09:03:34;14.13;;;11.95;;
62332;SDS011;48624;49.812;8.562;2024-03-02T09:06:00;17.63;;;11.63;;
62332;SDS011;48624;49.812;8.562;2024-03-02T09:08:25;17.95;;;11.75;;
62332;SDS011;48624;49.812;8.562;2024-03-02T09:10:51;16.08;;;11.55;;
62332;SDS011;48624;49.812;8.562;2024-03-02T09:13:17;13.13;;;10.02;;
62332;SDS011;48624;49.812;8.562;2024-03-02T09:15:42;12.93;;;9.45;;
62332;SDS011;48624;49.812;8.562;2024-03-02T09:18:08;16.05;;;10.70;;
62332;SDS011;48624;49.812;8.562;2024-03-02T09:20:33;15.43;;;9.48;;
62332;SDS011;48624;49.812;8.562;2024-03-02T09:22:58;11.82;;;9.48;;
62332;SDS011;48624;49.812;8.562;2024-03-02T09:25:24;14.60;;;9.68;;
62332;SDS011;48624;49.812;8.562;2024-03-02T09:27:50;14.85;;;10.07;;
62332;SDS011;48624;49.812;8.562;2024-03-02T09:30:16;15.43;;;9.52;;
62332;SDS011;48624;49.812;8.562;2024-03-02T09:32:41;13.98;;;9.85;;
62332;SDS011;48624;49.812;8.562;2024-03-02T09:35:06;12.75;;;9.60;;
62332;SDS011;48624;49.812;8.562;2024-03-02T09:37:32;14.32;;;9.93;;
62332;SDS011;48624;49.812;8.562;2024-03-02T09:39:57;11.70;;;8.50;;
62332;SDS011;48624;49.812;8.562;2024-03-02T09:42:23;11.70;;;8.65;;
62332;SDS011;48624;49.812;8.562;2024-03-02T09:44:49;14.27;;;8.75;;
62332;SDS011;48624;49.812;8.562;2024-03-02T09:47:14;14.13;;;8.95;;
62332;SDS011;48624;49.812;8.562;2024-03-02T09:49:40;11.82;;;9.02;;
62332;SDS011;48624;49.812;8.562;2024-03-02T09:52:05;13.80;;;9.15;;
62332;SDS011;48624;49.812;8.562;2024-03-02T09:54:32;12.90;;;7.15;;
62332;SDS011;48624;49.812;8.562;2024-03-02T09:56:57;11.68;;;8.35;;
62332;SDS011;48624;49.812;8.562;2024-03-02T09:59:23;13.75;;;8.82;;
62332;SDS011;48624;49.812;8.562;2024-03-02T10:01:55;11.80;;;9.63;;
62332;SDS011;48624;49.812;8.562;2024-03-02T10:04:21;9.82;;;7.80;;
62332;SDS011;48624;49.812;8.562;2024-03-02T10:06:48;11.10;;;6.75;;
62332;SDS011;48624;49.812;8.562;2024-03-02T10:09:13;9.82;;;6.47;;
62332;SDS011;48624;49.812;8.562;2024-03-02T10:11:52;8.38;;;6.38;;
62332;SDS011;48624;49.812;8.562;2024-03-02T10:14:17;9.57;;;6.53;;
62332;SDS011;48624;49.812;8.562;2024-03-02T10:16:43;9.68;;;5.80;;
62332;SDS011;48624;49.812;8.562;2024-03-02T10:19:22;8.85;;;5.72;;
62332;SDS011;48624;49.812;8.562;2024-03-02T10:21:58;7.97;;;5.72;;
62332;SDS011;48624;49.812;8.562;2024-03-02T10:24:24;9.13;;;5.38;;
62332;SDS011;48624;49.812;8.562;2024-03-02T10:26:50;7.63;;;5.88;;
62332;SDS011;48624;49.812;8.562;2024-03-02T10:29:16;7.03;;;5.50;;
62332;SDS011;48624;49.812;8.562;2024-03-02T10:31:43;6.20;;;4.97;;
62332;SDS011;48624;49.812;8.562;2024-03-02T10:34:10;6.40;;;5.38;;
62332;SDS011;48624;49.812;8.562;2024-03-02T10:36:37;7.25;;;5.05;;
62332;SDS011;48624;49.812;8.562;2024-03-02T10:39:08;6.60;;;5.03;;
62332;SDS011;48624;49.812;8.562;2024-03-02T10:41:34;7.68;;;5.85;;
62332;SDS011;48624;49.812;8.562;2024-03-02T10:44:08;7.03;;;4.32;;
62332;SDS011;48624;49.812;8.562;2024-03-02T10:46:35;6.80;;;4.25;;
62332;SDS011;48624;49.812;8.562;2024-03-02T10:49:01;5.35;;;4.38;;
62332;SDS011;48624;49.812;8.562;2024-03-02T10:51:29;7.70;;;4.95;;
62332;SDS011;48624;49.812;8.562;2024-03-02T10:53:59;6.00;;;4.95;;
62332;SDS011;48624;49.812;8.562;2024-03-02T10:56:33;6.05;;;4.18;;
62332;SDS011;48624;49.812;8.562;2024-03-02T10:59:03;6.43;;;4.40;;
62332;SDS011;48624;49.812;8.562;2024-03-02T11:01:36;7.53;;;4.72;;
62332;SDS011;48624;49.812;8.562;2024-03-02T11:04:04;6.57;;;4.72;;
62332;SDS011;48624;49.812;8.562;2024-03-02T11:09:00;9.50;;;4.30;;
62332;SDS011;48624;49.812;8.562;2024-03-02T11:11:33;5.38;;;4.22;;
62332;SDS011;48624;49.812;8.562;2024-03-02T11:14:02;5.25;;;4.10;;
62332;SDS011;48624;49.812;8.562;2024-03-02T11:16:34;6.50;;;4.43;;
62332;SDS011;48624;49.812;8.562;2024-03-02T11:19:13;5.30;;;4.30;;
62332;SDS011;48624;49.812;8.562;2024-03-02T11:21:40;7.05;;;4.97;;
62332;SDS011;48624;49.812;8.562;2024-03-02T11:26:46;5.97;;;5.10;;
62332;SDS011;48624;49.812;8.562;2024-03-02T11:29:55;5.57;;;4.03;;
62332;SDS011;48624;49.812;8.562;2024-03-02T11:32:01;6.80;;;4.63;;
62332;SDS011;48624;49.812;8.562;2024-03-02T11:34:34;7.03;;;5.13;;
62332;SDS011;48624;49.812;8.562;2024-03-02T11:37:01;8.02;;;5.35;;
62332;SDS011;48624;49.812;8.562;2024-03-02T11:39:27;8.02;;;5.10;;
62332;SDS011;48624;49.812;8.562;2024-03-02T11:41:53;7.20;;;4.97;;
62332;SDS011;48624;49.812;8.562;2024-03-02T11:44:19;5.82;;;4.00;;
62332;SDS011;48624;49.812;8.562;2024-03-02T11:46:58;6.43;;;4.55;;
62332;SDS011;48624;49.812;8.562;2024-03-02T11:52:11;5.70;;;4.32;;
62332;SDS011;48624;49.812;8.562;2024-03-02T11:54:39;6.57;;;5.15;;
62332;SDS011;48624;49.812;8.562;2024-03-02T11:57:11;9.00;;;4.97;;
62332;SDS011;48624;49.812;8.562;2024-03-02T11:59:37;5.88;;;5.00;;
62332;SDS011;48624;49.812;8.562;2024-03-02T12:02:02;5.70;;;4.57;;
62332;SDS011;48624;49.812;8.562;2024-03-02T12:04:28;7.60;;;5.25;;
62332;SDS011;48624;49.812;8.562;2024-03-02T12:06:54;6.53;;;4.97;;
62332;SDS011;48624;49.812;8.562;2024-03-02T12:09:21;5.47;;;4.90;;
62332;SDS011;48624;49.812;8.562;2024-03-02T12:11:47;6.30;;;5.13;;
62332;SDS011;48624;49.812;8.562;2024-03-02T12:14:12;5.30;;;4.25;;
62332;SDS011;48624;49.812;8.562;2024-03-02T12:16:44;5.72;;;4.10;;
62332;SDS011;48624;49.812;8.562;2024-03-02T12:19:09;9.73;;;5.05;;
62332;SDS011;48624;49.812;8.562;2024-03-02T12:21:35;5.07;;;4.13;;
62332;SDS011;48624;49.812;8.562;2024-03-02T12:24:01;5.03;;;3.25;;
62332;SDS011;48624;49.812;8.562;2024-03-02T12:26:27;3.53;;;3.15;;
62332;SDS011;48624;49.812;8.562;2024-03-02T12:28:53;5.75;;;3.80;;
62332;SDS011;48624;49.812;8.562;2024-03-02T12:31:19;4.03;;;3.13;;
62332;SDS011;48624;49.812;8.562;2024-03-02T12:33:44;3.60;;;2.75;;
62332;SDS011;48624;49.812;8.562;2024-03-02T12:36:09;3.10;;;2.53;;
62332;SDS011;48624;49.812;8.562;2024-03-02T12:38:37;3.90;;;3.25;;
62332;SDS011;48624;49.812;8.562;2024-03-02T12:41:02;6.10;;;4.30;;
62332;SDS011;48624;49.812;8.562;2024-03-02T12:43:31;4.50;;;3.25;;
62332;SDS011;48624;49.812;8.562;2024-03-02T12:45:56;4.07;;;3.55;;
62332;SDS011;48624;49.812;8.562;2024-03-02T12:48:22;2.90;;;2.60;;
62332;SDS011;48624;49.812;8.562;2024-03-02T12:50:48;3.45;;;1.70;;
62332;SDS011;48624;49.812;8.562;2024-03-02T12:53:14;1.63;;;1.23;;
62332;SDS011;48624;49.812;8.562;2024-03-02T12:55:42;1.52;;;1.17;;
62332;SDS011;48624;49.812;8.562;2024-03-02T12:58:16;2.30;;;1.48;;
62332;SDS011;48624;49.812;8.562;2024-03-02T13:00:46;2.05;;;1.35;;
62332;SDS011;48624;49.812;8.562;2024-03-02T13:03:11;1.73;;;1.05;;
62332;SDS011;48624;49.812;8.562;2024-03-02T13:05:37;1.73;;;1.42;;
62332;SDS011;48624;49.812;8.562;2024-03-02T13:08:02;4.07;;;3.20;;
62332;SDS011;48624;49.812;8.562;2024-03-02T13:10:30;1.83;;;0.90;;
62332;SDS011;48624;49.812;8.562;2024-03-02T13:12:56;2.92;;;1.30;;
62332;SDS011;48624;49.812;8.562;2024-03-02T13:15:22;1.45;;;0.70;;
62332;SDS011;48624;49.812;8.562;2024-03-02T13:17:47;1.27;;;0.63;;
62332;SDS011;48624;49.812;8.562;2024-03-02T13:20:14;1.27;;;0.43;;
62332;SDS011;48624;49.812;8.562;2024-03-02T13:22:40;0.50;;;0.30;;
62332;SDS011;48624;49.812;8.562;2024-03-02T13:25:05;2.10;;;1.27;;
62332;SDS011;48624;49.812;8.562;2024-03-02T13:27:31;1.05;;;0.70;;
62332;SDS011;48624;49.812;8.562;2024-03-02T13:29:57;0.77;;;0.63;;
62332;SDS011;48624;49.812;8.562;2024-03-02T13:32:24;1.60;;;0.98;;
62332;SDS011;48624;49.812;8.562;2024-03-02T13:34:50;2.05;;;0.95;;
62332;SDS011;48624;49.812;8.562;2024-03-02T13:37:16;1.27;;;0.98;;
62332;SDS011;48624;49.812;8.562;2024-03-02T13:39:41;2.33;;;1.13;;
62332;SDS011;48624;49.812;8.562;2024-03-02T13:42:10;1.42;;;0.80;;
62332;SDS011;48624;49.812;8.562;2024-03-02T13:44:37;0.50;;;0.50;;
62332;SDS011;48624;49.812;8.562;2024-03-02T13:47:03;2.17;;;1.10;;
62332;SDS011;48624;49.812;8.562;2024-03-02T13:49:29;1.40;;;0.88;;
62332;SDS011;48624;49.812;8.562;2024-03-02T13:52:08;1.38;;;0.70;;
62332;SDS011;48624;49.812;8.562;2024-03-02T13:54:38;2.90;;;0.80;;
62332;SDS011;48624;49.812;8.562;2024-03-02T13:57:05;1.17;;;0.70;;
62332;SDS011;48624;49.812;8.562;2024-03-02T13:59:30;1.25;;;0.60;;
62332;SDS011;48624;49.812;8.562;2024-03-02T14:01:56;1.20;;;0.55;;
62332;SDS011;48624;49.812;8.562;2024-03-02T14:04:21;4.00;;;1.30;;
62332;SDS011;48624;49.812;8.562;2024-03-02T14:06:47;1.38;;;0.70;;
62332;SDS011;48624;49.812;8.562;2024-03-02T14:09:12;1.67;;;0.70;;
62332;SDS011;48624;49.812;8.562;2024-03-02T14:11:38;1.90;;;0.70;;
62332;SDS011;48624;49.812;8.562;2024-03-02T14:14:03;0.93;;;0.75;;
62332;SDS011;48624;49.812;8.562;2024-03-02T14:16:28;1.42;;;0.88;;
62332;SDS011;48624;49.812;8.562;2024-03-02T14:18:53;2.25;;;0.80;;
62332;SDS011;48624;49.812;8.562;2024-03-02T14:21:19;0.98;;;0.73;;
62332;SDS011;48624;49.812;8.562;2024-03-02T14:23:45;3.08;;;0.80;;
62332;SDS011;48624;49.812;8.562;2024-03-02T14:26:10;1.30;;;0.82;;
62332;SDS011;48624;49.812;8.562;2024-03-02T14:28:35;0.70;;;0.70;;
62332;SDS011;48624;49.812;8.562;2024-03-02T14:31:01;2.05;;;0.63;;
62332;SDS011;48624;49.812;8.562;2024-03-02T14:33:27;1.30;;;0.95;;
62332;SDS011;48624;49.812;8.562;2024-03-02T14:35:53;1.10;;;0.70;;